sensor_id;sensor_type;location;lat;lon;timestamp;temperature;humidity
37786;DHT22;23625;48.784;9.336;2023-09-19T00:00:06;17.20;99.90
37786;DHT22;23625;48.784;9.336;2023-09-19T00:02:32;17.10;99.90
37786;DHT22;23625;48.784;9.336;2023-09-19T00:04:58;17.10;99.90
37786;DHT22;23625;48.784;9.336;2023-09-19T00:07:24;17.10;99.90
37786;DHT22;23625;48.784;9.336;2023-09-19T00:09:49;17.10;99.90
37786;DHT22;23625;48.784;9.336;2023-09-19T00:12:15;17.20;99.90
37786;DHT22;23625;48.784;9.336;2023-09-19T00:14:41;17.20;99.90
37786;DHT22;23625;48.784;9.336;2023-09-19T00:17:06;17.20;99.90
37786;DHT22;23625;48.784;9.336;2023-09-19T00:19:36;17.20;99.90
37786;DHT22;23625;48.784;9.336;2023-09-19T00:22:02;17.10;99.90
37786;DHT22;23625;48.784;9.336;2023-09-19T00:24:28;17.10;99.90
37786;DHT22;23625;48.784;9.336;2023-09-19T00:26:54;17.10;99.90
37786;DHT22;23625;48.784;9.336;2023-09-19T00:29:21;17.10;99.90
37786;DHT22;23625;48.784;9.336;2023-09-19T00:31:47;17.00;99.90
37786;DHT22;23625;48.784;9.336;2023-09-19T00:34:12;17.00;99.90
37786;DHT22;23625;48.784;9.336;2023-09-19T00:36:38;17.00;99.90
37786;DHT22;23625;48.784;9.336;2023-09-19T00:39:08;17.00;99.90
37786;DHT22;23625;48.784;9.336;2023-09-19T00:41:35;16.90;99.90
37786;DHT22;23625;48.784;9.336;2023-09-19T00:44:02;16.90;99.90
37786;DHT22;23625;48.784;9.336;2023-09-19T00:46:30;16.90;99.90
37786;DHT22;23625;48.784;9.336;2023-09-19T00:48:56;16.90;99.90
37786;DHT22;23625;48.784;9.336;2023-09-19T00:51:22;16.90;99.90
37786;DHT22;23625;48.784;9.336;2023-09-19T00:53:51;16.90;99.90
37786;DHT22;23625;48.784;9.336;2023-09-19T00:56:18;17.00;99.90
37786;DHT22;23625;48.784;9.336;2023-09-19T00:58:47;17.00;99.90
37786;DHT22;23625;48.784;9.336;2023-09-19T01:01:13;16.90;99.90
37786;DHT22;23625;48.784;9.336;2023-09-19T01:03:41;16.90;99.90
37786;DHT22;23625;48.784;9.336;2023-09-19T01:06:07;16.90;99.90
37786;DHT22;23625;48.784;9.336;2023-09-19T01:08:34;17.00;99.90
37786;DHT22;23625;48.784;9.336;2023-09-19T01:11:06;17.00;99.90
37786;DHT22;23625;48.784;9.336;2023-09-19T01:13:55;17.00;99.90
37786;DHT22;23625;48.784;9.336;2023-09-19T01:16:32;17.00;99.90
37786;DHT22;23625;48.784;9.336;2023-09-19T01:29:47;16.90;99.90
37786;DHT22;23625;48.784;9.336;2023-09-19T01:32:19;17.00;99.90
37786;DHT22;23625;48.784;9.336;2023-09-19T01:34:47;17.00;99.90
37786;DHT22;23625;48.784;9.336;2023-09-19T01:37:14;17.10;99.90
37786;DHT22;23625;48.784;9.336;2023-09-19T01:39:46;17.00;99.90
37786;DHT22;23625;48.784;9.336;2023-09-19T01:45:06;17.00;99.90
37786;DHT22;23625;48.784;9.336;2023-09-19T01:47:41;17.00;99.90
37786;DHT22;23625;48.784;9.336;2023-09-19T01:53:05;17.00;99.90
37786;DHT22;23625;48.784;9.336;2023-09-19T01:55:37;17.00;99.90
37786;DHT22;23625;48.784;9.336;2023-09-19T01:58:20;17.00;99.90
37786;DHT22;23625;48.784;9.336;2023-09-19T02:00:48;17.10;99.90
37786;DHT22;23625;48.784;9.336;2023-09-19T02:03:18;17.10;99.90
37786;DHT22;23625;48.784;9.336;2023-09-19T02:05:52;17.10;99.90
37786;DHT22;23625;48.784;9.336;2023-09-19T02:08:20;17.10;99.90
37786;DHT22;23625;48.784;9.336;2023-09-19T02:10:47;17.10;99.90
37786;DHT22;23625;48.784;9.336;2023-09-19T02:13:16;17.00;99.90
37786;DHT22;23625;48.784;9.336;2023-09-19T02:15:42;17.10;99.90
37786;DHT22;23625;48.784;9.336;2023-09-19T02:18:10;17.10;99.90
37786;DHT22;23625;48.784;9.336;2023-09-19T02:20:37;17.00;99.90
37786;DHT22;23625;48.784;9.336;2023-09-19T02:23:03;17.00;99.90
37786;DHT22;23625;48.784;9.336;2023-09-19T02:25:28;17.00;99.90
37786;DHT22;23625;48.784;9.336;2023-09-19T02:27:54;17.00;99.90
37786;DHT22;23625;48.784;9.336;2023-09-19T02:30:26;17.00;99.90
37786;DHT22;23625;48.784;9.336;2023-09-19T02:32:52;17.00;99.90
37786;DHT22;23625;48.784;9.336;2023-09-19T02:35:18;17.00;99.90
37786;DHT22;23625;48.784;9.336;2023-09-19T02:37:47;16.90;99.90
37786;DHT22;23625;48.784;9.336;2023-09-19T02:40:13;16.90;99.90
37786;DHT22;23625;48.784;9.336;2023-09-19T02:42:48;16.90;99.90
37786;DHT22;23625;48.784;9.336;2023-09-19T02:45:18;16.90;99.90
37786;DHT22;23625;48.784;9.336;2023-09-19T02:47:45;16.80;99.90
37786;DHT22;23625;48.784;9.336;2023-09-19T02:50:11;16.80;99.90
37786;DHT22;23625;48.784;9.336;2023-09-19T02:52:38;16.80;99.90
37786;DHT22;23625;48.784;9.336;2023-09-19T02:55:03;16.80;99.90
37786;DHT22;23625;48.784;9.336;2023-09-19T02:57:31;16.70;99.90
37786;DHT22;23625;48.784;9.336;2023-09-19T02:59:58;16.70;99.90
37786;DHT22;23625;48.784;9.336;2023-09-19T03:02:25;16.80;99.90
37786;DHT22;23625;48.784;9.336;2023-09-19T03:04:53;16.80;99.90
37786;DHT22;23625;48.784;9.336;2023-09-19T03:07:19;16.70;99.90
37786;DHT22;23625;48.784;9.336;2023-09-19T03:09:44;16.60;99.90
37786;DHT22;23625;48.784;9.336;2023-09-19T03:12:10;16.60;99.90
37786;DHT22;23625;48.784;9.336;2023-09-19T03:14:36;16.50;99.90
37786;DHT22;23625;48.784;9.336;2023-09-19T03:17:02;16.50;99.90
37786;DHT22;23625;48.784;9.336;2023-09-19T03:19:30;16.50;99.90
37786;DHT22;23625;48.784;9.336;2023-09-19T03:21:59;16.50;99.90
37786;DHT22;23625;48.784;9.336;2023-09-19T03:24:24;16.50;99.90
37786;DHT22;23625;48.784;9.336;2023-09-19T03:26:50;16.50;99.90
37786;DHT22;23625;48.784;9.336;2023-09-19T03:29:16;16.50;99.90
37786;DHT22;23625;48.784;9.336;2023-09-19T03:31:42;16.50;99.90
37786;DHT22;23625;48.784;9.336;2023-09-19T03:34:08;16.50;99.90
37786;DHT22;23625;48.784;9.336;2023-09-19T03:36:34;16.50;99.90
37786;DHT22;23625;48.784;9.336;2023-09-19T03:39:01;16.60;99.90
37786;DHT22;23625;48.784;9.336;2023-09-19T03:41:27;16.50;99.90
37786;DHT22;23625;48.784;9.336;2023-09-19T03:43:52;16.60;99.90
37786;DHT22;23625;48.784;9.336;2023-09-19T03:46:18;16.60;99.90
37786;DHT22;23625;48.784;9.336;2023-09-19T03:48:44;16.60;99.90
37786;DHT22;23625;48.784;9.336;2023-09-19T03:51:09;16.60;99.90
37786;DHT22;23625;48.784;9.336;2023-09-19T03:53:36;16.60;99.90
37786;DHT22;23625;48.784;9.336;2023-09-19T03:56:01;16.60;99.90
37786;DHT22;23625;48.784;9.336;2023-09-19T03:58:28;16.60;99.90
37786;DHT22;23625;48.784;9.336;2023-09-19T04:00:56;16.60;99.90
37786;DHT22;23625;48.784;9.336;2023-09-19T04:03:23;16.60;99.90
37786;DHT22;23625;48.784;9.336;2023-09-19T04:05:50;16.60;99.90
37786;DHT22;23625;48.784;9.336;2023-09-19T04:08:15;16.70;99.90
37786;DHT22;23625;48.784;9.336;2023-09-19T04:10:45;16.70;99.90
37786;DHT22;23625;48.784;9.336;2023-09-19T04:13:10;16.70;99.90
37786;DHT22;23625;48.784;9.336;2023-09-19T04:15:36;16.60;99.90
37786;DHT22;23625;48.784;9.336;2023-09-19T04:18:03;16.70;99.90
37786;DHT22;23625;48.784;9.336;2023-09-19T04:20:29;16.60;99.90
37786;DHT22;23625;48.784;9.336;2023-09-19T04:22:54;16.60;99.90
37786;DHT22;23625;48.784;9.336;2023-09-19T04:25:20;16.60;99.90
37786;DHT22;23625;48.784;9.336;2023-09-19T04:27:46;16.50;99.90
37786;DHT22;23625;48.784;9.336;2023-09-19T04:30:14;16.50;99.90
37786;DHT22;23625;48.784;9.336;2023-09-19T04:32:40;16.50;99.90
37786;DHT22;23625;48.784;9.336;2023-09-19T04:35:10;16.50;99.90
37786;DHT22;23625;48.784;9.336;2023-09-19T04:37:40;16.50;99.90
37786;DHT22;23625;48.784;9.336;2023-09-19T04:40:10;16.40;99.90
37786;DHT22;23625;48.784;9.336;2023-09-19T04:42:40;16.40;99.90
37786;DHT22;23625;48.784;9.336;2023-09-19T04:45:06;16.40;99.90
37786;DHT22;23625;48.784;9.336;2023-09-19T04:47:33;16.30;99.90
37786;DHT22;23625;48.784;9.336;2023-09-19T04:49:58;16.30;99.90
37786;DHT22;23625;48.784;9.336;2023-09-19T04:52:24;16.30;99.90
37786;DHT22;23625;48.784;9.336;2023-09-19T04:54:50;16.20;99.90
37786;DHT22;23625;48.784;9.336;2023-09-19T04:57:15;16.20;99.90
37786;DHT22;23625;48.784;9.336;2023-09-19T04:59:41;16.20;99.90
37786;DHT22;23625;48.784;9.336;2023-09-19T05:02:07;16.20;99.90
37786;DHT22;23625;48.784;9.336;2023-09-19T05:04:37;16.30;99.90
37786;DHT22;23625;48.784;9.336;2023-09-19T05:07:03;16.30;99.90
37786;DHT22;23625;48.784;9.336;2023-09-19T05:09:29;16.30;99.90
37786;DHT22;23625;48.784;9.336;2023-09-19T05:11:54;16.40;99.90
37786;DHT22;23625;48.784;9.336;2023-09-19T05:14:21;16.40;99.90
37786;DHT22;23625;48.784;9.336;2023-09-19T05:16:48;16.40;99.90
37786;DHT22;23625;48.784;9.336;2023-09-19T05:19:14;16.40;99.90
37786;DHT22;23625;48.784;9.336;2023-09-19T05:21:39;16.40;99.90
37786;DHT22;23625;48.784;9.336;2023-09-19T05:24:05;16.40;99.90
37786;DHT22;23625;48.784;9.336;2023-09-19T05:26:34;16.30;99.90
37786;DHT22;23625;48.784;9.336;2023-09-19T05:29:00;16.20;99.90
37786;DHT22;23625;48.784;9.336;2023-09-19T05:31:27;16.20;99.90
37786;DHT22;23625;48.784;9.336;2023-09-19T05:33:53;16.10;99.90
37786;DHT22;23625;48.784;9.336;2023-09-19T05:36:20;16.10;99.90
37786;DHT22;23625;48.784;9.336;2023-09-19T05:38:46;16.10;99.90
37786;DHT22;23625;48.784;9.336;2023-09-19T05:41:15;16.00;99.90
37786;DHT22;23625;48.784;9.336;2023-09-19T05:43:41;16.00;99.90
37786;DHT22;23625;48.784;9.336;2023-09-19T05:46:07;16.00;99.90
37786;DHT22;23625;48.784;9.336;2023-09-19T05:48:33;16.00;99.90
37786;DHT22;23625;48.784;9.336;2023-09-19T05:50:59;16.00;99.90
37786;DHT22;23625;48.784;9.336;2023-09-19T05:53:27;16.00;99.90
37786;DHT22;23625;48.784;9.336;2023-09-19T05:55:53;16.00;99.90
37786;DHT22;23625;48.784;9.336;2023-09-19T05:58:20;16.20;99.90
37786;DHT22;23625;48.784;9.336;2023-09-19T06:00:46;16.30;99.90
37786;DHT22;23625;48.784;9.336;2023-09-19T06:03:14;16.20;99.90
37786;DHT22;23625;48.784;9.336;2023-09-19T06:05:40;16.10;99.90
37786;DHT22;23625;48.784;9.336;2023-09-19T06:08:08;16.10;99.90
37786;DHT22;23625;48.784;9.336;2023-09-19T06:10:35;16.00;99.90
37786;DHT22;23625;48.784;9.336;2023-09-19T06:13:03;16.00;99.90
37786;DHT22;23625;48.784;9.336;2023-09-19T06:15:31;16.10;99.90
37786;DHT22;23625;48.784;9.336;2023-09-19T06:17:59;16.00;99.90
37786;DHT22;23625;48.784;9.336;2023-09-19T06:20:25;15.80;99.90
37786;DHT22;23625;48.784;9.336;2023-09-19T06:22:52;15.70;99.90
37786;DHT22;23625;48.784;9.336;2023-09-19T06:25:18;15.70;99.90
37786;DHT22;23625;48.784;9.336;2023-09-19T06:27:45;15.70;99.90
37786;DHT22;23625;48.784;9.336;2023-09-19T06:30:11;15.80;99.90
37786;DHT22;23625;48.784;9.336;2023-09-19T06:32:41;15.70;99.90
37786;DHT22;23625;48.784;9.336;2023-09-19T06:35:10;15.60;99.90
37786;DHT22;23625;48.784;9.336;2023-09-19T06:37:37;15.70;99.90
37786;DHT22;23625;48.784;9.336;2023-09-19T06:40:14;15.70;99.90
37786;DHT22;23625;48.784;9.336;2023-09-19T06:42:42;15.70;99.90
37786;DHT22;23625;48.784;9.336;2023-09-19T06:45:08;15.60;99.90
37786;DHT22;23625;48.784;9.336;2023-09-19T06:47:37;15.70;99.90
37786;DHT22;23625;48.784;9.336;2023-09-19T06:50:02;15.70;99.90
37786;DHT22;23625;48.784;9.336;2023-09-19T06:52:29;15.70;99.90
37786;DHT22;23625;48.784;9.336;2023-09-19T06:54:57;15.70;99.90
37786;DHT22;23625;48.784;9.336;2023-09-19T06:57:22;15.80;99.90
37786;DHT22;23625;48.784;9.336;2023-09-19T06:59:48;15.80;99.90
37786;DHT22;23625;48.784;9.336;2023-09-19T07:02:13;15.80;99.90
37786;DHT22;23625;48.784;9.336;2023-09-19T07:04:39;15.80;99.90
37786;DHT22;23625;48.784;9.336;2023-09-19T07:07:06;15.80;99.90
37786;DHT22;23625;48.784;9.336;2023-09-19T07:09:32;16.00;99.90
37786;DHT22;23625;48.784;9.336;2023-09-19T07:11:58;16.10;99.90
37786;DHT22;23625;48.784;9.336;2023-09-19T07:14:23;16.20;99.90
37786;DHT22;23625;48.784;9.336;2023-09-19T07:16:49;16.30;99.90
37786;DHT22;23625;48.784;9.336;2023-09-19T07:19:16;16.40;99.90
37786;DHT22;23625;48.784;9.336;2023-09-19T07:21:41;16.50;99.90
37786;DHT22;23625;48.784;9.336;2023-09-19T07:24:08;16.60;99.90
37786;DHT22;23625;48.784;9.336;2023-09-19T07:26:33;16.70;99.90
37786;DHT22;23625;48.784;9.336;2023-09-19T07:28:59;16.80;99.90
37786;DHT22;23625;48.784;9.336;2023-09-19T07:31:25;16.90;99.90
37786;DHT22;23625;48.784;9.336;2023-09-19T07:33:52;16.90;99.90
37786;DHT22;23625;48.784;9.336;2023-09-19T07:36:18;16.90;99.90
37786;DHT22;23625;48.784;9.336;2023-09-19T07:38:45;17.00;99.90
37786;DHT22;23625;48.784;9.336;2023-09-19T07:41:10;17.00;99.90
37786;DHT22;23625;48.784;9.336;2023-09-19T07:43:36;17.00;99.90
37786;DHT22;23625;48.784;9.336;2023-09-19T07:46:07;17.00;99.90
37786;DHT22;23625;48.784;9.336;2023-09-19T07:48:34;17.00;99.90
37786;DHT22;23625;48.784;9.336;2023-09-19T07:51:02;17.10;99.90
37786;DHT22;23625;48.784;9.336;2023-09-19T07:53:29;17.10;99.90
37786;DHT22;23625;48.784;9.336;2023-09-19T07:56:05;17.10;99.90
37786;DHT22;23625;48.784;9.336;2023-09-19T07:58:31;17.20;99.90
37786;DHT22;23625;48.784;9.336;2023-09-19T08:01:03;17.40;99.90
37786;DHT22;23625;48.784;9.336;2023-09-19T08:03:28;17.40;99.90
37786;DHT22;23625;48.784;9.336;2023-09-19T08:05:56;17.50;99.90
37786;DHT22;23625;48.784;9.336;2023-09-19T08:08:23;17.60;99.90
37786;DHT22;23625;48.784;9.336;2023-09-19T08:10:55;17.70;99.90
37786;DHT22;23625;48.784;9.336;2023-09-19T08:13:25;17.70;99.90
37786;DHT22;23625;48.784;9.336;2023-09-19T08:15:52;17.70;99.90
37786;DHT22;23625;48.784;9.336;2023-09-19T08:18:20;17.70;99.90
37786;DHT22;23625;48.784;9.336;2023-09-19T08:20:50;17.80;99.90
37786;DHT22;23625;48.784;9.336;2023-09-19T08:23:16;18.00;99.90
37786;DHT22;23625;48.784;9.336;2023-09-19T08:25:43;18.10;99.90
37786;DHT22;23625;48.784;9.336;2023-09-19T08:28:09;18.10;99.90
37786;DHT22;23625;48.784;9.336;2023-09-19T08:30:37;18.30;99.90
37786;DHT22;23625;48.784;9.336;2023-09-19T08:33:06;18.30;99.90
37786;DHT22;23625;48.784;9.336;2023-09-19T08:35:32;18.50;99.90
37786;DHT22;23625;48.784;9.336;2023-09-19T08:37:57;18.60;99.90
37786;DHT22;23625;48.784;9.336;2023-09-19T08:40:26;18.70;99.90
37786;DHT22;23625;48.784;9.336;2023-09-19T08:42:55;18.70;99.90
37786;DHT22;23625;48.784;9.336;2023-09-19T08:45:22;18.90;99.90
37786;DHT22;23625;48.784;9.336;2023-09-19T08:50:29;19.10;99.90
37786;DHT22;23625;48.784;9.336;2023-09-19T08:52:58;18.90;99.90
37786;DHT22;23625;48.784;9.336;2023-09-19T08:55:29;18.90;99.90
37786;DHT22;23625;48.784;9.336;2023-09-19T08:58:03;18.90;99.90
37786;DHT22;23625;48.784;9.336;2023-09-19T09:00:34;19.10;99.90
37786;DHT22;23625;48.784;9.336;2023-09-19T09:03:01;19.00;99.90
37786;DHT22;23625;48.784;9.336;2023-09-19T09:05:28;19.00;99.90
37786;DHT22;23625;48.784;9.336;2023-09-19T09:07:54;18.80;99.90
37786;DHT22;23625;48.784;9.336;2023-09-19T09:10:22;18.80;99.90
37786;DHT22;23625;48.784;9.336;2023-09-19T09:12:58;18.90;99.90
37786;DHT22;23625;48.784;9.336;2023-09-19T09:15:24;19.10;99.90
37786;DHT22;23625;48.784;9.336;2023-09-19T09:17:51;19.40;99.90
37786;DHT22;23625;48.784;9.336;2023-09-19T09:20:19;19.80;99.90
37786;DHT22;23625;48.784;9.336;2023-09-19T09:22:55;20.10;99.90
37786;DHT22;23625;48.784;9.336;2023-09-19T09:25:22;20.30;99.90
37786;DHT22;23625;48.784;9.336;2023-09-19T09:28:07;20.20;99.90
37786;DHT22;23625;48.784;9.336;2023-09-19T09:30:37;20.10;99.90
37786;DHT22;23625;48.784;9.336;2023-09-19T09:33:10;19.90;99.90
37786;DHT22;23625;48.784;9.336;2023-09-19T09:35:37;19.90;99.90
37786;DHT22;23625;48.784;9.336;2023-09-19T09:38:12;19.80;99.90
37786;DHT22;23625;48.784;9.336;2023-09-19T09:40:49;19.70;99.90
37786;DHT22;23625;48.784;9.336;2023-09-19T09:46:15;19.50;99.90
37786;DHT22;23625;48.784;9.336;2023-09-19T09:51:39;19.60;99.90
37786;DHT22;23625;48.784;9.336;2023-09-19T09:54:14;19.60;99.90
37786;DHT22;23625;48.784;9.336;2023-09-19T09:59:50;20.00;97.40
37786;DHT22;23625;48.784;9.336;2023-09-19T10:02:27;20.10;96.40
37786;DHT22;23625;48.784;9.336;2023-09-19T10:05:14;20.10;96.80
37786;DHT22;23625;48.784;9.336;2023-09-19T10:07:50;20.20;95.20
37786;DHT22;23625;48.784;9.336;2023-09-19T10:10:38;20.40;91.00
37786;DHT22;23625;48.784;9.336;2023-09-19T10:13:08;20.50;89.40
37786;DHT22;23625;48.784;9.336;2023-09-19T10:15:38;20.50;87.70
37786;DHT22;23625;48.784;9.336;2023-09-19T10:18:06;20.60;84.10
37786;DHT22;23625;48.784;9.336;2023-09-19T10:20:40;20.50;83.90
37786;DHT22;23625;48.784;9.336;2023-09-19T10:23:10;20.50;84.30
37786;DHT22;23625;48.784;9.336;2023-09-19T10:25:42;20.30;83.10
37786;DHT22;23625;48.784;9.336;2023-09-19T10:28:11;20.30;81.70
37786;DHT22;23625;48.784;9.336;2023-09-19T10:30:41;20.20;82.60
37786;DHT22;23625;48.784;9.336;2023-09-19T10:33:12;20.10;82.00
37786;DHT22;23625;48.784;9.336;2023-09-19T10:35:39;20.20;85.80
37786;DHT22;23625;48.784;9.336;2023-09-19T10:38:12;20.40;83.50
37786;DHT22;23625;48.784;9.336;2023-09-19T10:40:39;20.50;81.00
37786;DHT22;23625;48.784;9.336;2023-09-19T10:43:19;20.40;80.00
37786;DHT22;23625;48.784;9.336;2023-09-19T10:45:47;20.40;79.20
37786;DHT22;23625;48.784;9.336;2023-09-19T10:48:15;20.40;79.60
37786;DHT22;23625;48.784;9.336;2023-09-19T10:50:56;20.40;80.60
37786;DHT22;23625;48.784;9.336;2023-09-19T10:53:26;20.50;84.00
37786;DHT22;23625;48.784;9.336;2023-09-19T10:55:58;20.50;84.00
37786;DHT22;23625;48.784;9.336;2023-09-19T10:58:31;20.50;81.70
37786;DHT22;23625;48.784;9.336;2023-09-19T11:01:04;20.60;85.40
37786;DHT22;23625;48.784;9.336;2023-09-19T11:03:38;20.70;85.20
37786;DHT22;23625;48.784;9.336;2023-09-19T11:06:18;20.60;84.00
37786;DHT22;23625;48.784;9.336;2023-09-19T11:09:02;20.70;81.00
37786;DHT22;23625;48.784;9.336;2023-09-19T11:11:40;20.60;80.00
37786;DHT22;23625;48.784;9.336;2023-09-19T11:14:15;20.50;79.20
37786;DHT22;23625;48.784;9.336;2023-09-19T11:30:38;22.40;74.60
37786;DHT22;23625;48.784;9.336;2023-09-19T11:33:20;22.50;70.00
37786;DHT22;23625;48.784;9.336;2023-09-19T11:36:11;22.50;68.60
37786;DHT22;23625;48.784;9.336;2023-09-19T11:46:26;22.60;68.90
37786;DHT22;23625;48.784;9.336;2023-09-19T11:48:53;22.70;64.40
37786;DHT22;23625;48.784;9.336;2023-09-19T11:51:23;22.90;66.10
37786;DHT22;23625;48.784;9.336;2023-09-19T11:53:54;22.80;62.70
37786;DHT22;23625;48.784;9.336;2023-09-19T11:56:24;22.30;64.20
37786;DHT22;23625;48.784;9.336;2023-09-19T11:58:52;22.20;64.90
37786;DHT22;23625;48.784;9.336;2023-09-19T12:01:31;21.80;66.20
37786;DHT22;23625;48.784;9.336;2023-09-19T12:03:58;21.70;67.70
37786;DHT22;23625;48.784;9.336;2023-09-19T12:06:28;22.10;69.30
37786;DHT22;23625;48.784;9.336;2023-09-19T12:08:58;22.10;67.00
37786;DHT22;23625;48.784;9.336;2023-09-19T12:11:29;22.40;67.00
37786;DHT22;23625;48.784;9.336;2023-09-19T12:14:02;22.50;66.40
37786;DHT22;23625;48.784;9.336;2023-09-19T12:16:28;22.80;67.00
37786;DHT22;23625;48.784;9.336;2023-09-19T12:18:57;23.10;66.80
37786;DHT22;23625;48.784;9.336;2023-09-19T12:21:24;23.30;64.00
37786;DHT22;23625;48.784;9.336;2023-09-19T12:26:30;23.20;62.60
37786;DHT22;23625;48.784;9.336;2023-09-19T12:29:02;23.00;63.10
37786;DHT22;23625;48.784;9.336;2023-09-19T12:31:30;23.00;62.20
37786;DHT22;23625;48.784;9.336;2023-09-19T12:34:01;22.90;64.10
37786;DHT22;23625;48.784;9.336;2023-09-19T12:36:27;23.00;64.10
37786;DHT22;23625;48.784;9.336;2023-09-19T12:38:56;23.00;64.30
37786;DHT22;23625;48.784;9.336;2023-09-19T12:41:24;23.20;64.70
37786;DHT22;23625;48.784;9.336;2023-09-19T12:43:52;23.50;63.60
37786;DHT22;23625;48.784;9.336;2023-09-19T12:46:22;23.70;63.60
37786;DHT22;23625;48.784;9.336;2023-09-19T12:49:18;23.80;62.50
37786;DHT22;23625;48.784;9.336;2023-09-19T12:51:46;23.50;62.80
37786;DHT22;23625;48.784;9.336;2023-09-19T12:54:12;23.60;62.00
37786;DHT22;23625;48.784;9.336;2023-09-19T12:56:41;23.90;62.60
37786;DHT22;23625;48.784;9.336;2023-09-19T12:59:12;24.40;60.10
37786;DHT22;23625;48.784;9.336;2023-09-19T13:01:40;24.50;59.40
37786;DHT22;23625;48.784;9.336;2023-09-19T13:04:21;24.40;59.00
37786;DHT22;23625;48.784;9.336;2023-09-19T13:06:54;23.60;58.40
37786;DHT22;23625;48.784;9.336;2023-09-19T13:09:22;23.10;60.80
37786;DHT22;23625;48.784;9.336;2023-09-19T13:11:48;23.50;62.00
37786;DHT22;23625;48.784;9.336;2023-09-19T13:14:22;23.90;61.10
37786;DHT22;23625;48.784;9.336;2023-09-19T13:17:04;24.30;61.00
37786;DHT22;23625;48.784;9.336;2023-09-19T13:19:46;24.70;59.40
37786;DHT22;23625;48.784;9.336;2023-09-19T13:22:36;24.80;58.70
37786;DHT22;23625;48.784;9.336;2023-09-19T13:25:05;24.90;58.80
37786;DHT22;23625;48.784;9.336;2023-09-19T13:27:32;24.80;58.80
37786;DHT22;23625;48.784;9.336;2023-09-19T13:29:58;24.30;57.60
37786;DHT22;23625;48.784;9.336;2023-09-19T13:32:25;24.20;59.50
37786;DHT22;23625;48.784;9.336;2023-09-19T13:34:50;24.30;59.50
37786;DHT22;23625;48.784;9.336;2023-09-19T13:37:16;24.30;59.00
37786;DHT22;23625;48.784;9.336;2023-09-19T13:39:43;24.00;58.60
37786;DHT22;23625;48.784;9.336;2023-09-19T13:42:13;23.90;59.50
37786;DHT22;23625;48.784;9.336;2023-09-19T13:44:38;23.90;59.30
37786;DHT22;23625;48.784;9.336;2023-09-19T13:47:06;24.10;59.60
37786;DHT22;23625;48.784;9.336;2023-09-19T13:49:35;24.10;59.60
37786;DHT22;23625;48.784;9.336;2023-09-19T13:52:01;24.10;59.80
37786;DHT22;23625;48.784;9.336;2023-09-19T13:54:30;24.20;59.80
37786;DHT22;23625;48.784;9.336;2023-09-19T13:56:56;24.40;59.20
37786;DHT22;23625;48.784;9.336;2023-09-19T13:59:22;24.50;58.20
37786;DHT22;23625;48.784;9.336;2023-09-19T14:01:49;24.30;56.50
37786;DHT22;23625;48.784;9.336;2023-09-19T14:04:16;24.30;58.00
37786;DHT22;23625;48.784;9.336;2023-09-19T14:06:42;24.30;57.20
37786;DHT22;23625;48.784;9.336;2023-09-19T14:09:08;24.30;57.60
37786;DHT22;23625;48.784;9.336;2023-09-19T14:11:35;24.30;57.20
37786;DHT22;23625;48.784;9.336;2023-09-19T14:14:01;24.10;57.10
37786;DHT22;23625;48.784;9.336;2023-09-19T14:16:27;24.30;58.00
37786;DHT22;23625;48.784;9.336;2023-09-19T14:18:55;24.20;57.40
37786;DHT22;23625;48.784;9.336;2023-09-19T14:21:21;24.20;57.80
37786;DHT22;23625;48.784;9.336;2023-09-19T14:23:46;24.20;58.00
37786;DHT22;23625;48.784;9.336;2023-09-19T14:26:13;24.00;57.60
37786;DHT22;23625;48.784;9.336;2023-09-19T14:28:39;23.70;58.50
37786;DHT22;23625;48.784;9.336;2023-09-19T14:31:06;23.60;58.70
37786;DHT22;23625;48.784;9.336;2023-09-19T14:33:32;23.50;58.00
37786;DHT22;23625;48.784;9.336;2023-09-19T14:35:58;23.30;59.20
37786;DHT22;23625;48.784;9.336;2023-09-19T14:38:24;23.30;59.60
37786;DHT22;23625;48.784;9.336;2023-09-19T14:40:59;23.20;59.00
37786;DHT22;23625;48.784;9.336;2023-09-19T14:43:25;23.00;59.30
37786;DHT22;23625;48.784;9.336;2023-09-19T14:45:50;23.00;59.20
37786;DHT22;23625;48.784;9.336;2023-09-19T14:48:16;22.90;59.70
37786;DHT22;23625;48.784;9.336;2023-09-19T14:50:41;22.90;59.80
37786;DHT22;23625;48.784;9.336;2023-09-19T14:53:09;23.20;60.10
37786;DHT22;23625;48.784;9.336;2023-09-19T14:55:39;23.10;59.60
37786;DHT22;23625;48.784;9.336;2023-09-19T14:58:06;23.30;60.00
37786;DHT22;23625;48.784;9.336;2023-09-19T15:00:33;23.40;59.80
37786;DHT22;23625;48.784;9.336;2023-09-19T15:02:59;23.40;58.60
37786;DHT22;23625;48.784;9.336;2023-09-19T15:05:25;23.50;59.20
37786;DHT22;23625;48.784;9.336;2023-09-19T15:07:51;23.30;58.60
37786;DHT22;23625;48.784;9.336;2023-09-19T15:10:16;23.20;60.10
37786;DHT22;23625;48.784;9.336;2023-09-19T15:12:44;23.30;59.90
37786;DHT22;23625;48.784;9.336;2023-09-19T15:15:10;23.30;60.00
37786;DHT22;23625;48.784;9.336;2023-09-19T15:17:36;23.30;60.40
37786;DHT22;23625;48.784;9.336;2023-09-19T15:20:02;23.30;59.80
37786;DHT22;23625;48.784;9.336;2023-09-19T15:22:28;23.20;60.20
37786;DHT22;23625;48.784;9.336;2023-09-19T15:24:54;23.30;59.80
37786;DHT22;23625;48.784;9.336;2023-09-19T15:27:20;23.30;59.90
37786;DHT22;23625;48.784;9.336;2023-09-19T15:29:46;23.30;61.50
37786;DHT22;23625;48.784;9.336;2023-09-19T15:32:12;23.40;61.50
37786;DHT22;23625;48.784;9.336;2023-09-19T15:34:38;23.40;62.30
37786;DHT22;23625;48.784;9.336;2023-09-19T15:37:04;23.50;59.30
37786;DHT22;23625;48.784;9.336;2023-09-19T15:39:30;23.30;58.70
37786;DHT22;23625;48.784;9.336;2023-09-19T15:41:59;23.20;58.20
37786;DHT22;23625;48.784;9.336;2023-09-19T15:44:24;23.10;59.30
37786;DHT22;23625;48.784;9.336;2023-09-19T15:46:53;23.10;59.80
37786;DHT22;23625;48.784;9.336;2023-09-19T15:49:19;23.10;60.20
37786;DHT22;23625;48.784;9.336;2023-09-19T15:51:44;23.20;60.40
37786;DHT22;23625;48.784;9.336;2023-09-19T15:54:14;23.30;60.10
37786;DHT22;23625;48.784;9.336;2023-09-19T15:56:43;23.40;59.40
37786;DHT22;23625;48.784;9.336;2023-09-19T15:59:10;23.30;59.50
37786;DHT22;23625;48.784;9.336;2023-09-19T16:01:38;23.20;59.90
37786;DHT22;23625;48.784;9.336;2023-09-19T16:04:04;23.10;59.30
37786;DHT22;23625;48.784;9.336;2023-09-19T16:06:31;22.90;59.80
37786;DHT22;23625;48.784;9.336;2023-09-19T16:08:58;23.00;60.30
37786;DHT22;23625;48.784;9.336;2023-09-19T16:11:25;22.90;59.80
37786;DHT22;23625;48.784;9.336;2023-09-19T16:13:52;23.00;59.20
37786;DHT22;23625;48.784;9.336;2023-09-19T16:16:20;22.90;59.50
37786;DHT22;23625;48.784;9.336;2023-09-19T16:18:51;22.80;59.60
37786;DHT22;23625;48.784;9.336;2023-09-19T16:21:18;22.80;61.00
37786;DHT22;23625;48.784;9.336;2023-09-19T16:23:48;22.70;60.80
37786;DHT22;23625;48.784;9.336;2023-09-19T16:26:19;22.70;63.20
37786;DHT22;23625;48.784;9.336;2023-09-19T16:28:47;22.50;64.00